Time;durP1;ratioP1;P1;durP2;ratioP2;P2;SDS_P1;SDS_P2;PMS_P1;PMS_P2;Temp;Humidity;BMP_temperature;BMP_pressure;BME280_temperature;BME280_humidity;BME280_pressure;Samples;Min_cycle;Max_cycle;Signal;HPM_P1;HPM_P2
2023/08/29 00:01:29;;;;;;;;;;;;;;;;;;5045857;28;19947;-60
2023/08/29 00:03:56;;;;;;;;;;;;;;;;;;5050438;28;19964;-60
2023/08/29 00:06:22;;;;;;;;;;;;;;;;;;5049330;28;20045;-60
2023/08/29 00:08:48;;;;;;;;;;;;;;;;;;5046706;28;20365;-60
2023/08/29 00:11:13;;;;;;;;;;;;;;;;;;5048116;28;19947;-60
2023/08/29 00:13:39;;;;;;;;;;;;;;;;;;5051714;28;19924;-60
2023/08/29 00:16:06;;;;;;;;;;;;;;;;;;5028882;28;19925;-60
2023/08/29 00:18:32;;;;;;;;;;;;;;;;;;5049033;28;20375;-60
2023/08/29 00:20:57;;;;;;;;;;;;;;;;;;5045233;28;19978;-60
2023/08/29 00:23:23;;;;;;;;;;;;;;;;;;5047707;28;20020;-60
2023/08/29 00:25:49;;;;;;;;;;;;;;;;;;5040476;28;19971;-60
2023/08/29 00:28:15;;;;;;;;;;;;;;;;;;5047306;28;20554;-60
2023/08/29 00:30:41;;;;;;;;;;;;;;;;;;5029319;28;19927;-60
2023/08/29 00:33:09;;;;;;;;;;;;;;;;;;5049381;28;21498;-60
2023/08/29 00:35:35;;;;;;;;;;;;;;;;;;5043475;28;20378;-60
2023/08/29 00:38:01;;;;;;;;;;;;;;;;;;5050189;28;20370;-60
2023/08/29 00:40:27;;;;;;;;;;;;;;;;;;5049087;28;19925;-60
2023/08/29 00:42:53;;;;;;;;;;;;;;;;;;5043162;28;19966;-60
2023/08/29 00:45:19;;;;;;;;;;;;;;;;;;5052867;28;20334;-60
2023/08/29 00:47:44;;;;;;;;;;;;;;;;;;5046529;28;20011;-60
2023/08/29 00:50:11;;;;;;;;;;;;;;;;;;5050360;28;20060;-60
2023/08/29 00:52:36;;;;;;;;;;;;;;;;;;5022366;28;19985;-60
2023/08/29 00:55:02;;;;;;;;;;;;;;;;;;5050823;28;19921;-60
2023/08/29 00:57:28;;;;;;;;;;;;;;;;;;5049511;28;19978;-60
2023/08/29 00:59:54;;;;;;;;;;;;;;;;;;5050714;28;19928;-60
2023/08/29 01:02:20;;;;;;;;;;;;;;;;;;5049396;28;19921;-60
2023/08/29 01:04:46;;;;;;;;;;;;;;;;;;5049303;28;19983;-60
2023/08/29 01:07:12;;;;;;;;;;;;;;;;;;5048545;28;19963;-60
2023/08/29 01:09:38;;;;;;;;;;;;;;;;;;5050530;28;19931;-60
2023/08/29 01:12:04;;;;;;;;;;;;;;;;;;5048496;28;20000;-60
2023/08/29 01:14:30;;;;;;;;;;;;;;;;;;5050549;28;19921;-60
2023/08/29 01:16:55;;;;;;;;;;;;;;;;;;5029415;28;19925;-60
2023/08/29 01:19:23;;;;;;;;;;;;;;;;;;5048418;28;19951;-60
2023/08/29 01:21:49;;;;;;;;;;;;;;;;;;5048542;28;19925;-60
2023/08/29 01:24:15;;;;;;;;;;;;;;;;;;5052289;28;19931;-60
2023/08/29 01:26:40;;;;;;;;;;;;;;;;;;5052233;28;19956;-60
2023/08/29 01:29:06;;;;;;;;;;;;;;;;;;5046948;28;20254;-60
2023/08/29 01:31:32;;;;;;;;;;;;;;;;;;5049249;28;19928;-60
2023/08/29 01:33:58;;;;;;;;;;;;;;;;;;5050426;28;19943;-60
2023/08/29 01:36:24;;;;;;;;;;;;;;;;;;5055216;28;19921;-60
2023/08/29 01:38:50;;;;;;;;;;;;;;;;;;5046027;28;19967;-60
2023/08/29 01:41:16;;;;;;;;;;;;;;;;;;5058797;28;19933;-60
2023/08/29 01:43:42;;;;;;;;;;;;;;;;;;5052266;28;19924;-60
2023/08/29 01:46:07;;;;;;;;;;;;;;;;;;5053267;28;20393;-60
2023/08/29 01:48:33;;;;;;;;;;;;;;;;;;5040063;28;19939;-60
2023/08/29 01:50:59;;;;;;;;;;;;;;;;;;5062270;28;19982;-60
2023/08/29 01:53:25;;;;;;;;;;;;;;;;;;5047067;28;20019;-60
2023/08/29 01:55:51;;;;;;;;;;;;;;;;;;5034328;28;19983;-60
2023/08/29 01:58:17;;;;;;;;;;;;;;;;;;5049890;28;19921;-60
2023/08/29 02:00:43;;;;;;;;;;;;;;;;;;5053884;28;19927;-60
2023/08/29 02:03:09;;;;;;;;;;;;;;;;;;5057688;28;20397;-60
2023/08/29 02:05:35;;;;;;;;;;;;;;;;;;5053102;28;19932;-60
2023/08/29 02:08:01;;;;;;;;;;;;;;;;;;5056218;28;20262;-60
2023/08/29 02:10:26;;;;;;;;;;;;;;;;;;5052744;28;20003;-60
2023/08/29 02:12:52;;;;;;;;;;;;;;;;;;5063617;28;20405;-60
2023/08/29 02:15:18;;;;;;;;;;;;;;;;;;5033688;28;19927;-60
2023/08/29 02:17:44;;;;;;;;;;;;;;;;;;5050376;28;20378;-60
2023/08/29 02:20:10;;;;;;;;;;;;;;;;;;5037070;28;19928;-60
2023/08/29 02:22:36;;;;;;;;;;;;;;;;;;5049519;28;19935;-60
2023/08/29 02:25:04;;;;;;;;;;;;;;;;;;5050755;28;20015;-60
2023/08/29 02:27:30;;;;;;;;;;;;;;;;;;5048887;28;19956;-60
2023/08/29 02:29:56;;;;;;;;;;;;;;;;;;5052549;28;20455;-60
2023/08/29 02:32:22;;;;;;;;;;;;;;;;;;5040301;28;20267;-60
2023/08/29 02:34:48;;;;;;;;;;;;;;;;;;5052112;28;19929;-60
2023/08/29 02:37:15;;;;;;;;;;;;;;;;;;5056811;28;19974;-60
2023/08/29 02:39:41;;;;;;;;;;;;;;;;;;5043437;28;19928;-60
2023/08/29 02:42:07;;;;;;;;;;;;;;;;;;5050877;28;19924;-60
2023/08/29 02:44:33;;;;;;;;;;;;;;;;;;5063168;28;19975;-60
2023/08/29 02:46:59;;;;;;;;;;;;;;;;;;5050089;28;20366;-60
2023/08/29 02:49:25;;;;;;;;;;;;;;;;;;5049363;28;20023;-60
2023/08/29 02:51:51;;;;;;;;;;;;;;;;;;5034291;28;20259;-60
2023/08/29 02:54:18;;;;;;;;;;;;;;;;;;5051308;28;20425;-60
2023/08/29 02:56:44;;;;;;;;;;;;;;;;;;5052701;28;19959;-60
2023/08/29 02:59:09;;;;;;;;;;;;;;;;;;5041934;28;19928;-60
2023/08/29 03:01:36;;;;;;;;;;;;;;;;;;5046413;28;19920;-60
2023/08/29 03:04:01;;;;;;;;;;;;;;;;;;5051028;28;20271;-60
2023/08/29 03:06:27;;;;;;;;;;;;;;;;;;5052469;28;19920;-60
2023/08/29 03:08:53;;;;;;;;;;;;;;;;;;5050215;28;19925;-60
2023/08/29 03:11:19;;;;;;;;;;;;;;;;;;5049587;28;19928;-60
2023/08/29 03:13:45;;;;;;;;;;;;;;;;;;5033240;28;20390;-60
2023/08/29 03:16:11;;;;;;;;;;;;;;;;;;5049823;28;19924;-60
2023/08/29 03:18:37;;;;;;;;;;;;;;;;;;5052052;28;19928;-60
2023/08/29 03:21:03;;;;;;;;;;;;;;;;;;5049883;28;19928;-60
2023/08/29 03:23:29;;;;;;;;;;;;;;;;;;5050615;28;20358;-60
2023/08/29 03:25:55;;;;;;;;;;;;;;;;;;5050082;28;19927;-60
2023/08/29 03:28:21;;;;;;;;;;;;;;;;;;5048984;28;19925;-60
2023/08/29 03:30:47;;;;;;;;;;;;;;;;;;5042692;28;19924;-60
2023/08/29 03:33:13;;;;;;;;;;;;;;;;;;5051200;28;19927;-60
2023/08/29 03:35:39;;;;;;;;;;;;;;;;;;5039801;28;19921;-60
2023/08/29 03:38:05;;;;;;;;;;;;;;;;;;5050223;28;19931;-61
2023/08/29 03:40:31;;;;;;;;;;;;;;;;;;5048357;28;20011;-60
2023/08/29 03:42:57;;;;;;;;;;;;;;;;;;5047015;28;19920;-60
2023/08/29 03:45:23;;;;;;;;;;;;;;;;;;5049077;28;20688;-60
2023/08/29 03:47:49;;;;;;;;;;;;;;;;;;5053540;28;19925;-61
2023/08/29 03:50:15;;;;;;;;;;;;;;;;;;5051134;28;19932;-60
2023/08/29 03:52:41;;;;;;;;;;;;;;;;;;5032188;28;20252;-60
2023/08/29 03:55:07;;;;;;;;;;;;;;;;;;5051338;28;19928;-60
2023/08/29 03:57:32;;;;;;;;;;;;;;;;;;5047102;28;19998;-60
2023/08/29 03:59:58;;;;;;;;;;;;;;;;;;5051908;28;19924;-60
2023/08/29 04:02:24;;;;;;;;;;;;;;;;;;5039877;28;20432;-61
2023/08/29 04:04:50;;;;;;;;;;;;;;;;;;5051855;28;19920;-60
2023/08/29 04:07:16;;;;;;;;;;;;;;;;;;5051050;28;19933;-60
2023/08/29 04:09:42;;;;;;;;;;;;;;;;;;5050996;28;19929;-60
2023/08/29 04:12:08;;;;;;;;;;;;;;;;;;5023116;28;19921;-60
2023/08/29 04:14:34;;;;;;;;;;;;;;;;;;5050296;28;19964;-60
2023/08/29 04:17:00;;;;;;;;;;;;;;;;;;5051598;28;19948;-60
2023/08/29 04:19:26;;;;;;;;;;;;;;;;;;5049183;28;20345;-60
2023/08/29 04:21:52;;;;;;;;;;;;;;;;;;5051586;28;19925;-60
2023/08/29 04:24:18;;;;;;;;;;;;;;;;;;5023494;28;19928;-61
2023/08/29 04:26:44;;;;;;;;;;;;;;;;;;5037255;28;20417;-60
2023/08/29 04:29:10;;;;;;;;;;;;;;;;;;5026345;28;19932;-60
2023/08/29 04:31:36;;;;;;;;;;;;;;;;;;5049052;28;19995;-60
2023/08/29 04:34:02;;;;;;;;;;;;;;;;;;5050078;28;20332;-60
2023/08/29 04:36:28;;;;;;;;;;;;;;;;;;5045281;28;20435;-61
2023/08/29 04:38:53;;;;;;;;;;;;;;;;;;5048660;28;20003;-61
2023/08/29 04:41:19;;;;;;;;;;;;;;;;;;5050412;28;19978;-61
2023/08/29 04:43:45;;;;;;;;;;;;;;;;;;5036642;28;20429;-60
2023/08/29 04:46:11;;;;;;;;;;;;;;;;;;5032109;28;19935;-61
2023/08/29 04:48:37;;;;;;;;;;;;;;;;;;5030945;28;20278;-60
2023/08/29 04:51:06;;;;;;;;;;;;;;;;;;5048970;28;19975;-60
2023/08/29 04:53:31;;;;;;;;;;;;;;;;;;5050385;28;20007;-60
2023/08/29 04:55:57;;;;;;;;;;;;;;;;;;5049673;28;20015;-60
2023/08/29 04:58:23;;;;;;;;;;;;;;;;;;5036799;28;20316;-60
2023/08/29 05:00:49;;;;;;;;;;;;;;;;;;5019439;28;19921;-60
2023/08/29 05:03:15;;;;;;;;;;;;;;;;;;5020706;28;19943;-60
2023/08/29 05:05:41;;;;;;;;;;;;;;;;;;5054429;28;19929;-60
2023/08/29 05:08:07;;;;;;;;;;;;;;;;;;5052531;28;19924;-61
2023/08/29 05:10:33;;;;;;;;;;;;;;;;;;5060048;28;19933;-60
2023/08/29 05:12:59;;;;;;;;;;;;;;;;;;5060171;28;19921;-60
2023/08/29 05:15:24;;;;;;;;;;;;;;;;;;5039689;28;19920;-60
2023/08/29 05:17:50;;;;;;;;;;;;;;;;;;5059947;28;20370;-60
2023/08/29 05:20:16;;;;;;;;;;;;;;;;;;5057220;28;19938;-60
2023/08/29 05:22:43;;;;;;;;;;;;;;;;;;5060050;28;19929;-60
2023/08/29 05:25:09;;;;;;;;;;;;;;;;;;5059715;28;19987;-60
2023/08/29 05:27:35;;;;;;;;;;;;;;;;;;5065217;28;19924;-60
2023/08/29 05:30:01;;;;;;;;;;;;;;;;;;5063011;28;20015;-60
2023/08/29 05:32:27;;;;;;;;;;;;;;;;;;5065171;28;19986;-60
2023/08/29 05:34:53;;;;;;;;;;;;;;;;;;5071636;28;19924;-60
2023/08/29 05:37:19;;;;;;;;;;;;;;;;;;5060840;28;19964;-61
2023/08/29 05:39:45;;;;;;;;;;;;;;;;;;5056078;28;19924;-60
2023/08/29 05:42:11;;;;;;;;;;;;;;;;;;5038566;28;19966;-60
2023/08/29 05:44:38;;;;;;;;;;;;;;;;;;5054228;28;19924;-60
2023/08/29 05:47:04;;;;;;;;;;;;;;;;;;5047869;28;19929;-60
2023/08/29 05:49:30;;;;;;;;;;;;;;;;;;5051774;28;19928;-60
2023/08/29 05:51:55;;;;;;;;;;;;;;;;;;5034508;28;20663;-60
2023/08/29 05:54:21;;;;;;;;;;;;;;;;;;5044599;28;19921;-61
2023/08/29 05:56:47;;;;;;;;;;;;;;;;;;5054401;28;20274;-61
2023/08/29 05:59:14;;;;;;;;;;;;;;;;;;5045269;28;19925;-60
2023/08/29 06:01:40;;;;;;;;;;;;;;;;;;5060081;28;19931;-60
2023/08/29 06:04:06;;;;;;;;;;;;;;;;;;5052962;28;20217;-60
2023/08/29 06:06:32;;;;;;;;;;;;;;;;;;5036364;28;19932;-60
2023/08/29 06:08:59;;;;;;;;;;;;;;;;;;5041497;28;20012;-60
2023/08/29 06:11:25;;;;;;;;;;;;;;;;;;5045047;28;19932;-60
2023/08/29 06:13:51;;;;;;;;;;;;;;;;;;5043310;28;19995;-60
2023/08/29 06:16:17;;;;;;;;;;;;;;;;;;5049343;28;19921;-61
2023/08/29 06:18:43;;;;;;;;;;;;;;;;;;5050260;28;20386;-61
2023/08/29 06:21:09;;;;;;;;;;;;;;;;;;5032380;28;19921;-61
2023/08/29 06:23:35;;;;;;;;;;;;;;;;;;5030964;28;20334;-61
2023/08/29 06:26:02;;;;;;;;;;;;;;;;;;5029548;28;19921;-61
2023/08/29 06:28:29;;;;;;;;;;;;;;;;;;5028793;28;19968;-61
2023/08/29 06:30:55;;;;;;;;;;;;;;;;;;5045847;28;19932;-61
2023/08/29 06:33:21;;;;;;;;;;;;;;;;;;5048537;28;19924;-61
2023/08/29 06:35:47;;;;;;;;;;;;;;;;;;5057401;28;19931;-61
2023/08/29 06:38:13;;;;;;;;;;;;;;;;;;5049396;28;20398;-61
2023/08/29 06:40:39;;;;;;;;;;;;;;;;;;5049792;28;20015;-61
2023/08/29 06:43:04;;;;;;;;;;;;;;;;;;5051538;28;19921;-61
2023/08/29 06:45:30;;;;;;;;;;;;;;;;;;5047555;28;19920;-61
2023/08/29 06:47:56;;;;;;;;;;;;;;;;;;5048493;28;19936;-61
2023/08/29 06:50:22;;;;;;;;;;;;;;;;;;5045755;28;20405;-61
2023/08/29 06:52:48;;;;;;;;;;;;;;;;;;5032120;28;19975;-62
2023/08/29 06:55:14;;;;;;;;;;;;;;;;;;5045063;28;20312;-62
2023/08/29 06:57:40;;;;;;;;;;;;;;;;;;5047962;28;19948;-61
2023/08/29 07:00:06;;;;;;;;;;;;;;;;;;5052833;28;20522;-62
2023/08/29 07:02:32;;;;;;;;;;;;;;;;;;5052055;28;19931;-61
2023/08/29 07:04:58;;;;;;;;;;;;;;;;;;5050337;28;19999;-61
2023/08/29 07:07:23;;;;;;;;;;;;;;;;;;5052502;28;19920;-62
2023/08/29 07:09:49;;;;;;;;;;;;;;;;;;5051016;28;20038;-62
2023/08/29 07:12:15;;;;;;;;;;;;;;;;;;5050102;28;19928;-62
2023/08/29 07:14:41;;;;;;;;;;;;;;;;;;5048695;28;19935;-62
2023/08/29 07:17:07;;;;;;;;;;;;;;;;;;5050907;28;19975;-62
2023/08/29 07:19:33;;;;;;;;;;;;;;;;;;5048139;28;20374;-62
2023/08/29 07:21:59;;;;;;;;;;;;;;;;;;5036514;28;19932;-61
2023/08/29 07:24:25;;;;;;;;;;;;;;;;;;5046684;28;19921;-62
2023/08/29 07:26:51;;;;;;;;;;;;;;;;;;5050289;28;19920;-62
2023/08/29 07:29:16;;;;;;;;;;;;;;;;;;5043819;28;19933;-62
2023/08/29 07:31:42;;;;;;;;;;;;;;;;;;5045210;28;20363;-62
2023/08/29 07:34:08;;;;;;;;;;;;;;;;;;5032035;28;19928;-62
2023/08/29 07:36:34;;;;;;;;;;;;;;;;;;5050426;28;20533;-62
2023/08/29 07:39:00;;;;;;;;;;;;;;;;;;5047599;28;19931;-62
2023/08/29 07:41:26;;;;;;;;;;;;;;;;;;5049568;28;19932;-61
2023/08/29 07:43:52;;;;;;;;;;;;;;;;;;5048825;28;19920;-61
2023/08/29 07:46:18;;;;;;;;;;;;;;;;;;5047124;28;19925;-62
2023/08/29 07:48:44;;;;;;;;;;;;;;;;;;5051296;28;19929;-61
2023/08/29 07:51:10;;;;;;;;;;;;;;;;;;5055132;28;19925;-61
2023/08/29 07:53:36;;;;;;;;;;;;;;;;;;5071910;22;19925;-61
2023/08/29 07:56:03;;;;;;;;;;;;;;;;;;5071025;28;20003;-61
2023/08/29 07:58:29;;;;;;;;;;;;;;;;;;5057482;28;19932;-61
2023/08/29 08:00:54;;;;;;;;;;;;;;;;;;5064690;28;19921;-61
2023/08/29 08:03:20;;;;;;;;;;;;;;;;;;5065758;28;19973;-61
2023/08/29 08:05:46;;;;;;;;;;;;;;;;;;5037998;28;20004;-61
2023/08/29 08:08:12;;;;;;;;;;;;;;;;;;5068894;28;19924;-58
2023/08/29 08:10:38;;;;;;;;;;;;;;;;;;5067099;28;19971;-61
2023/08/29 08:13:04;;;;;;;;;;;;;;;;;;5049786;28;20022;-61
2023/08/29 08:15:30;;;;;;;;;;;;;;;;;;5048324;28;20300;-61
2023/08/29 08:17:56;;;;;;;;;;;;;;;;;;5059027;28;19924;-61
2023/08/29 08:20:22;;;;;;;;;;;;;;;;;;5070976;28;20273;-61
2023/08/29 08:22:47;;;;;;;;;;;;;;;;;;5068456;28;19931;-61
2023/08/29 08:25:13;;;;;;;;;;;;;;;;;;5070537;28;20262;-61
2023/08/29 08:27:40;;;;;;;;;;;;;;;;;;5070210;28;19925;-61
2023/08/29 08:30:06;;;;;;;;;;;;;;;;;;5068696;28;19925;-60
2023/08/29 08:32:31;;;;;;;;;;;;;;;;;;5066825;28;19924;-61
2023/08/29 08:34:57;;;;;;;;;;;;;;;;;;5070247;28;19936;-61
2023/08/29 08:37:23;;;;;;;;;;;;;;;;;;5068599;28;19920;-61
2023/08/29 08:39:49;;;;;;;;;;;;;;;;;;5063756;28;19940;-61
2023/08/29 08:42:15;;;;;;;;;;;;;;;;;;5051815;28;19920;-60
2023/08/29 08:44:41;;;;;;;;;;;;;;;;;;5044702;28;19925;-60
2023/08/29 08:47:07;;;;;;;;;;;;;;;;;;5061079;28;19947;-60
2023/08/29 08:49:33;;;;;;;;;;;;;;;;;;5068810;28;20304;-60
2023/08/29 08:51:59;;;;;;;;;;;;;;;;;;5067555;28;20593;-61
2023/08/29 08:54:25;;;;;;;;;;;;;;;;;;5067581;28;19932;-61
2023/08/29 08:56:51;;;;;;;;;;;;;;;;;;5064209;28;19948;-61
2023/08/29 08:59:17;;;;;;;;;;;;;;;;;;5065817;28;19971;-61
2023/08/29 09:01:43;;;;;;;;;;;;;;;;;;5079101;28;19924;-61
2023/08/29 09:04:08;;;;;;;;;;;;;;;;;;5083274;28;20597;-61
2023/08/29 09:06:34;;;;;;;;;;;;;;;;;;5067065;28;19927;-60
2023/08/29 09:09:00;;;;;;;;;;;;;;;;;;5068325;28;20275;-61
2023/08/29 09:11:26;;;;;;;;;;;;;;;;;;5064353;28;19970;-61
2023/08/29 09:13:52;;;;;;;;;;;;;;;;;;5068894;28;20290;-61
2023/08/29 09:16:18;;;;;;;;;;;;;;;;;;5069993;28;19928;-61
2023/08/29 09:18:44;;;;;;;;;;;;;;;;;;5069217;28;19967;-61
2023/08/29 09:21:10;;;;;;;;;;;;;;;;;;5070117;28;19973;-61
2023/08/29 09:23:36;;;;;;;;;;;;;;;;;;5069165;28;19947;-61
2023/08/29 09:26:02;;;;;;;;;;;;;;;;;;5069746;28;20600;-60
2023/08/29 09:28:27;;;;;;;;;;;;;;;;;;5062597;28;19958;-60
2023/08/29 09:30:53;;;;;;;;;;;;;;;;;;5069841;28;19920;-60
2023/08/29 09:33:22;;;;;;;;;;;;;;;;;;5062224;28;19925;-60
2023/08/29 09:35:48;;;;;;;;;;;;;;;;;;5069872;28;19924;-60
2023/08/29 09:38:14;;;;;;;;;;;;;;;;;;5063533;28;19920;-60
2023/08/29 09:40:40;;;;;;;;;;;;;;;;;;5068385;28;20628;-60
2023/08/29 09:43:06;;;;;;;;;;;;;;;;;;5051851;28;20009;-60
2023/08/29 09:45:32;;;;;;;;;;;;;;;;;;5053305;28;19986;-60
2023/08/29 09:47:58;;;;;;;;;;;;;;;;;;5071610;28;20011;-60
2023/08/29 09:50:24;;;;;;;;;;;;;;;;;;5072392;28;20011;-60
2023/08/29 09:52:50;;;;;;;;;;;;;;;;;;5070858;28;20478;-60
2023/08/29 09:55:16;;;;;;;;;;;;;;;;;;5071403;28;19925;-60
2023/08/29 09:57:42;;;;;;;;;;;;;;;;;;5070741;28;19934;-61
2023/08/29 10:00:09;;;;;;;;;;;;;;;;;;5073635;28;20003;-61
2023/08/29 10:02:35;;;;;;;;;;;;;;;;;;5072227;28;19920;-61
2023/08/29 10:05:03;;;;;;;;;;;;;;;;;;5074017;28;20396;-61
2023/08/29 10:07:29;;;;;;;;;;;;;;;;;;5045850;28;20406;-61
2023/08/29 10:09:54;;;;;;;;;;;;;;;;;;5076418;28;19971;-61
2023/08/29 10:12:20;;;;;;;;;;;;;;;;;;5072048;28;19920;-60
2023/08/29 10:14:46;;;;;;;;;;;;;;;;;;5071824;28;19920;-60
2023/08/29 10:17:12;;;;;;;;;;;;;;;;;;5070665;28;19921;-61
2023/08/29 10:19:38;;;;;;;;;;;;;;;;;;5066866;28;19924;-61
2023/08/29 10:22:04;;;;;;;;;;;;;;;;;;5066850;28;19970;-61
2023/08/29 10:24:30;;;;;;;;;;;;;;;;;;5070408;28;19921;-61
2023/08/29 10:26:56;;;;;;;;;;;;;;;;;;5071609;28;19947;-61
2023/08/29 10:29:22;;;;;;;;;;;;;;;;;;5069451;28;20389;-61
2023/08/29 10:31:48;;;;;;;;;;;;;;;;;;5071739;28;20023;-61
2023/08/29 10:34:14;;;;;;;;;;;;;;;;;;5065128;28;19928;-61
2023/08/29 10:36:40;;;;;;;;;;;;;;;;;;5071869;28;19924;-61
2023/08/29 10:39:09;;;;;;;;;;;;;;;;;;5049328;28;19928;-61
2023/08/29 10:41:35;;;;;;;;;;;;;;;;;;5070422;28;19943;-61
2023/08/29 10:44:01;;;;;;;;;;;;;;;;;;5068590;28;20374;-61
2023/08/29 10:46:27;;;;;;;;;;;;;;;;;;5067262;28;19924;-61
2023/08/29 10:48:54;;;;;;;;;;;;;;;;;;5070543;28;19967;-61
2023/08/29 10:51:22;;;;;;;;;;;;;;;;;;5070358;28;19977;-61
2023/08/29 10:53:48;;;;;;;;;;;;;;;;;;5071697;28;19924;-61
2023/08/29 10:56:15;;;;;;;;;;;;;;;;;;5066320;28;20401;-60
2023/08/29 10:58:41;;;;;;;;;;;;;;;;;;5072553;28;19920;-61
2023/08/29 11:01:07;;;;;;;;;;;;;;;;;;5065562;28;19928;-60
2023/08/29 11:03:32;;;;;;;;;;;;;;;;;;5072544;28;19924;-61
2023/08/29 11:05:58;;;;;;;;;;;;;;;;;;5033114;28;19924;-60
2023/08/29 11:08:24;;;;;;;;;;;;;;;;;;5048273;28;20427;-60
2023/08/29 11:10:52;;;;;;;;;;;;;;;;;;5068037;28;21297;-61
2023/08/29 11:13:18;;;;;;;;;;;;;;;;;;5069453;28;24104;-61
2023/08/29 11:15:44;;;;;;;;;;;;;;;;;;5067154;28;19967;-61
2023/08/29 11:18:10;;;;;;;;;;;;;;;;;;5068043;28;19959;-61
2023/08/29 11:20:36;;;;;;;;;;;;;;;;;;5067717;28;19959;-61
2023/08/29 11:23:02;;;;;;;;;;;;;;;;;;5067722;28;19928;-61
2023/08/29 11:25:28;;;;;;;;;;;;;;;;;;5069625;28;20373;-61
2023/08/29 11:27:54;;;;;;;;;;;;;;;;;;5070304;28;20027;-61
2023/08/29 11:30:20;;;;;;;;;;;;;;;;;;5068738;28;19943;-61
2023/08/29 11:32:46;;;;;;;;;;;;;;;;;;5065528;28;19925;-61
2023/08/29 11:35:12;;;;;;;;;;;;;;;;;;5051412;28;19982;-61
2023/08/29 11:37:38;;;;;;;;;;;;;;;;;;5071046;28;19924;-61
2023/08/29 11:40:09;;;;;;;;;;;;;;;;;;5066595;28;20381;-60
2023/08/29 11:42:35;;;;;;;;;;;;;;;;;;5069974;28;19928;-61
2023/08/29 11:45:01;;;;;;;;;;;;;;;;;;5070697;28;19924;-60
2023/08/29 11:47:27;;;;;;;;;;;;;;;;;;5057220;28;19932;-60
2023/08/29 11:49:53;;;;;;;;;;;;;;;;;;5060596;28;19929;-60
2023/08/29 11:52:19;;;;;;;;;;;;;;;;;;5053562;28;19984;-60
2023/08/29 11:54:45;;;;;;;;;;;;;;;;;;5071625;28;19993;-60
2023/08/29 11:57:11;;;;;;;;;;;;;;;;;;5071989;28;19921;-60
2023/08/29 11:59:37;;;;;;;;;;;;;;;;;;5070034;28;19936;-60
2023/08/29 12:02:03;;;;;;;;;;;;;;;;;;5062364;28;20020;-60
2023/08/29 12:04:29;;;;;;;;;;;;;;;;;;5051087;28;20020;-60
2023/08/29 12:06:55;;;;;;;;;;;;;;;;;;5054192;28;20324;-60
2023/08/29 12:09:21;;;;;;;;;;;;;;;;;;5051864;28;19920;-60
2023/08/29 12:11:47;;;;;;;;;;;;;;;;;;5066328;28;19932;-60
2023/08/29 12:14:12;;;;;;;;;;;;;;;;;;5071484;28;20560;-60
2023/08/29 12:16:39;;;;;;;;;;;;;;;;;;5053910;28;19966;-60
2023/08/29 12:19:05;;;;;;;;;;;;;;;;;;5071590;28;20423;-60
2023/08/29 12:21:31;;;;;;;;;;;;;;;;;;5071950;28;19928;-60
2023/08/29 12:23:57;;;;;;;;;;;;;;;;;;5071452;28;19924;-60
2023/08/29 12:26:23;;;;;;;;;;;;;;;;;;5079336;28;19926;-60
2023/08/29 12:28:49;;;;;;;;;;;;;;;;;;5073426;28;19961;-60
2023/08/29 12:31:15;;;;;;;;;;;;;;;;;;5091633;28;19920;-60
2023/08/29 12:33:41;;;;;;;;;;;;;;;;;;5087422;28;19975;-60
2023/08/29 12:36:07;;;;;;;;;;;;;;;;;;5069337;28;20384;-60
2023/08/29 12:38:33;;;;;;;;;;;;;;;;;;5069923;28;19976;-60
2023/08/29 12:40:59;;;;;;;;;;;;;;;;;;5067804;28;19978;-60
2023/08/29 12:43:25;;;;;;;;;;;;;;;;;;5052881;28;19921;-60
2023/08/29 12:45:51;;;;;;;;;;;;;;;;;;5051791;28;20442;-61
2023/08/29 12:48:18;;;;;;;;;;;;;;;;;;5051008;28;19928;-60
2023/08/29 12:50:44;;;;;;;;;;;;;;;;;;5050601;28;19968;-60
2023/08/29 12:53:10;;;;;;;;;;;;;;;;;;5063807;28;19979;-60
2023/08/29 12:55:36;;;;;;;;;;;;;;;;;;5052513;28;19921;-61
2023/08/29 12:58:04;;;;;;;;;;;;;;;;;;5069798;28;20364;-60
2023/08/29 13:00:31;;;;;;;;;;;;;;;;;;5069948;28;19921;-60
2023/08/29 13:02:57;;;;;;;;;;;;;;;;;;5051315;28;19925;-60
2023/08/29 13:05:23;;;;;;;;;;;;;;;;;;5053993;28;19966;-60
2023/08/29 13:07:49;;;;;;;;;;;;;;;;;;5046547;28;19985;-60
2023/08/29 13:10:16;;;;;;;;;;;;;;;;;;5066415;28;19932;-60
2023/08/29 13:12:42;;;;;;;;;;;;;;;;;;5063830;28;19925;-60
2023/08/29 13:15:11;;;;;;;;;;;;;;;;;;5051415;28;19973;-60
2023/08/29 13:17:36;;;;;;;;;;;;;;;;;;5070319;28;19925;-60
2023/08/29 13:20:02;;;;;;;;;;;;;;;;;;5074209;28;19973;-60
2023/08/29 13:22:28;;;;;;;;;;;;;;;;;;5073588;28;19931;-60
2023/08/29 13:24:54;;;;;;;;;;;;;;;;;;5074202;28;19931;-60
2023/08/29 13:27:20;;;;;;;;;;;;;;;;;;5073310;28;19928;-60
2023/08/29 13:29:46;;;;;;;;;;;;;;;;;;5074074;28;20017;-60
2023/08/29 13:32:12;;;;;;;;;;;;;;;;;;5074306;28;19991;-60
2023/08/29 13:34:38;;;;;;;;;;;;;;;;;;5074058;28;20360;-60
2023/08/29 13:37:04;;;;;;;;;;;;;;;;;;5073075;28;19924;-60
2023/08/29 13:39:30;;;;;;;;;;;;;;;;;;5072807;28;19920;-60
2023/08/29 13:41:55;;;;;;;;;;;;;;;;;;5074048;28;20396;-60
2023/08/29 13:44:21;;;;;;;;;;;;;;;;;;5063968;28;19932;-60
2023/08/29 13:46:47;;;;;;;;;;;;;;;;;;5054639;28;20140;-60
2023/08/29 13:49:13;;;;;;;;;;;;;;;;;;5056362;28;20355;-60
2023/08/29 13:51:39;;;;;;;;;;;;;;;;;;5056295;28;19925;-60
2023/08/29 13:54:05;;;;;;;;;;;;;;;;;;5057151;28;19935;-60
2023/08/29 13:56:31;;;;;;;;;;;;;;;;;;5053947;28;20286;-60
2023/08/29 13:58:58;;;;;;;;;;;;;;;;;;5054850;28;19932;-60
2023/08/29 14:01:23;;;;;;;;;;;;;;;;;;5056966;28;19929;-60
2023/08/29 14:03:49;;;;;;;;;;;;;;;;;;5074169;28;19930;-60
2023/08/29 14:06:15;;;;;;;;;;;;;;;;;;5066328;28;19920;-61
2023/08/29 14:08:41;;;;;;;;;;;;;;;;;;5036761;28;19927;-60
2023/08/29 14:11:07;;;;;;;;;;;;;;;;;;5062384;28;19932;-61
2023/08/29 14:13:33;;;;;;;;;;;;;;;;;;5071990;28;19944;-60
2023/08/29 14:16:02;;;;;;;;;;;;;;;;;;5069952;28;20361;-61
2023/08/29 14:18:28;;;;;;;;;;;;;;;;;;5063575;28;19977;-60
2023/08/29 14:20:54;;;;;;;;;;;;;;;;;;5072123;28;20328;-60
2023/08/29 14:23:20;;;;;;;;;;;;;;;;;;5067521;28;19920;-60
2023/08/29 14:25:46;;;;;;;;;;;;;;;;;;5034236;28;19921;-61
2023/08/29 14:28:12;;;;;;;;;;;;;;;;;;5063455;28;20047;-61
2023/08/29 14:30:38;;;;;;;;;;;;;;;;;;5069298;28;20027;-61
2023/08/29 14:33:04;;;;;;;;;;;;;;;;;;5070926;28;20382;-61
2023/08/29 14:35:30;;;;;;;;;;;;;;;;;;5067961;28;19920;-61
2023/08/29 14:37:56;;;;;;;;;;;;;;;;;;5067190;28;19925;-61
2023/08/29 14:40:22;;;;;;;;;;;;;;;;;;5070578;28;19977;-61
2023/08/29 14:42:48;;;;;;;;;;;;;;;;;;5065991;28;19928;-61
2023/08/29 14:45:14;;;;;;;;;;;;;;;;;;5070232;28;19925;-60
2023/08/29 14:47:40;;;;;;;;;;;;;;;;;;5043775;28;20405;-61
2023/08/29 14:50:06;;;;;;;;;;;;;;;;;;5069913;28;19963;-61
2023/08/29 14:52:32;;;;;;;;;;;;;;;;;;5064390;28;20017;-61
2023/08/29 14:54:58;;;;;;;;;;;;;;;;;;5059102;28;19929;-61
2023/08/29 14:57:24;;;;;;;;;;;;;;;;;;5072014;28;19925;-61
2023/08/29 14:59:50;;;;;;;;;;;;;;;;;;5057485;28;20021;-61
2023/08/29 15:02:15;;;;;;;;;;;;;;;;;;5061416;28;19920;-61
2023/08/29 15:04:42;;;;;;;;;;;;;;;;;;5069594;28;19921;-61
2023/08/29 15:07:14;;;;;;;;;;;;;;;;;;5073035;28;20297;-61
2023/08/29 15:09:40;;;;;;;;;;;;;;;;;;5071796;28;20017;-61
2023/08/29 15:12:06;;;;;;;;;;;;;;;;;;5066436;28;19921;-61
2023/08/29 15:14:32;;;;;;;;;;;;;;;;;;5061955;28;20282;-61
2023/08/29 15:16:57;;;;;;;;;;;;;;;;;;5069441;28;19932;-61
2023/08/29 15:19:24;;;;;;;;;;;;;;;;;;5070984;28;19924;-61
2023/08/29 15:21:50;;;;;;;;;;;;;;;;;;5063421;28;19920;-61
2023/08/29 15:24:16;;;;;;;;;;;;;;;;;;5071790;28;19966;-61
2023/08/29 15:26:42;;;;;;;;;;;;;;;;;;5072384;28;19924;-61
2023/08/29 15:29:08;;;;;;;;;;;;;;;;;;5036271;28;19975;-61
2023/08/29 15:31:34;;;;;;;;;;;;;;;;;;5071601;28;19924;-61
2023/08/29 15:34:00;;;;;;;;;;;;;;;;;;5054589;28;19924;-61
2023/08/29 15:36:26;;;;;;;;;;;;;;;;;;5071892;28;19920;-61
2023/08/29 15:38:52;;;;;;;;;;;;;;;;;;5070957;28;19928;-61
2023/08/29 15:41:17;;;;;;;;;;;;;;;;;;5043621;28;20322;-61
2023/08/29 15:43:43;;;;;;;;;;;;;;;;;;5068109;28;20243;-61
2023/08/29 15:46:09;;;;;;;;;;;;;;;;;;5068968;28;20337;-61
2023/08/29 15:48:35;;;;;;;;;;;;;;;;;;5065198;28;19978;-61
2023/08/29 15:51:01;;;;;;;;;;;;;;;;;;5068848;28;20311;-61
2023/08/29 15:53:27;;;;;;;;;;;;;;;;;;5070052;28;19924;-60
2023/08/29 15:55:53;;;;;;;;;;;;;;;;;;5072169;28;19920;-60
2023/08/29 15:58:20;;;;;;;;;;;;;;;;;;5068369;28;19928;-60
2023/08/29 16:00:46;;;;;;;;;;;;;;;;;;5063179;28;20361;-60
2023/08/29 16:03:12;;;;;;;;;;;;;;;;;;5067400;28;19921;-60
2023/08/29 16:05:38;;;;;;;;;;;;;;;;;;5069893;28;20539;-60
2023/08/29 16:08:04;;;;;;;;;;;;;;;;;;5069733;28;19968;-60
2023/08/29 16:10:30;;;;;;;;;;;;;;;;;;5069566;28;19920;-60
2023/08/29 16:12:56;;;;;;;;;;;;;;;;;;5065960;28;20638;-60
2023/08/29 16:15:22;;;;;;;;;;;;;;;;;;5069371;28;19935;-60
2023/08/29 16:17:48;;;;;;;;;;;;;;;;;;5054358;28;19935;-60
2023/08/29 16:20:14;;;;;;;;;;;;;;;;;;5069542;28;19920;-60
2023/08/29 16:22:40;;;;;;;;;;;;;;;;;;5069880;28;19942;-60
2023/08/29 16:25:06;;;;;;;;;;;;;;;;;;5064673;28;19989;-60
2023/08/29 16:27:32;;;;;;;;;;;;;;;;;;5071321;28;20286;-60
2023/08/29 16:29:58;;;;;;;;;;;;;;;;;;5067749;28;19929;-60
2023/08/29 16:32:24;;;;;;;;;;;;;;;;;;5070966;28;19924;-60
2023/08/29 16:34:50;;;;;;;;;;;;;;;;;;5066912;28;19921;-60
2023/08/29 16:37:16;;;;;;;;;;;;;;;;;;5069000;28;20294;-60